sensor_id;sensor_type;location;lat;lon;timestamp;pressure;altitude;pressure_sealevel;temperature;humidity
44198;BME280;30157;55.512;37.764;2023-04-29T00:01:28;99739.78;;;5.47;84.27
44198;BME280;30157;55.512;37.764;2023-04-29T00:03:53;99710.34;;;5.28;84.04
44198;BME280;30157;55.512;37.764;2023-04-29T00:06:19;99735.19;;;5.27;84.32
44198;BME280;30157;55.512;37.764;2023-04-29T00:08:45;99664.16;;;4.82;84.27
44198;BME280;30157;55.512;37.764;2023-04-29T00:11:11;99740.06;;;5.10;84.80
44198;BME280;30157;55.512;37.764;2023-04-29T00:13:37;99717.59;;;4.97;85.08
44198;BME280;30157;55.512;37.764;2023-04-29T00:16:05;99725.38;;;5.01;85.44
44198;BME280;30157;55.512;37.764;2023-04-29T00:18:31;99694.16;;;4.80;85.43
44198;BME280;30157;55.512;37.764;2023-04-29T00:20:57;99709.78;;;4.92;85.56
44198;BME280;30157;55.512;37.764;2023-04-29T00:23:23;99661.41;;;4.69;85.29
44198;BME280;30157;55.512;37.764;2023-04-29T00:25:49;99702.84;;;4.88;85.34
44198;BME280;30157;55.512;37.764;2023-04-29T00:28:16;99667.34;;;4.67;85.74
44198;BME280;30157;55.512;37.764;2023-04-29T00:30:41;99669.00;;;4.62;86.28
44198;BME280;30157;55.512;37.764;2023-04-29T00:33:07;99702.84;;;4.88;86.35
44198;BME280;30157;55.512;37.764;2023-04-29T00:35:34;99697.69;;;4.86;86.29
44198;BME280;30157;55.512;37.764;2023-04-29T00:38:00;99687.19;;;4.73;86.23
44198;BME280;30157;55.512;37.764;2023-04-29T00:40:29;99681.06;;;4.66;86.63
44198;BME280;30157;55.512;37.764;2023-04-29T00:42:55;99681.78;;;4.57;86.92
44198;BME280;30157;55.512;37.764;2023-04-29T00:45:21;99693.84;;;4.63;87.16
44198;BME280;30157;55.512;37.764;2023-04-29T00:47:48;99645.38;;;4.32;87.38
44198;BME280;30157;55.512;37.764;2023-04-29T00:50:14;99708.56;;;4.70;87.49
44198;BME280;30157;55.512;37.764;2023-04-29T00:52:40;99710.28;;;4.71;87.44
44198;BME280;30157;55.512;37.764;2023-04-29T00:55:07;99690.28;;;4.54;87.11
44198;BME280;30157;55.512;37.764;2023-04-29T00:57:33;99729.19;;;4.73;87.05
44198;BME280;30157;55.512;37.764;2023-04-29T00:59:59;99717.00;;;4.64;87.36
44198;BME280;30157;55.512;37.764;2023-04-29T01:02:26;99678.88;;;4.40;86.92
44198;BME280;30157;55.512;37.764;2023-04-29T01:04:52;99730.78;;;4.66;87.38
44198;BME280;30157;55.512;37.764;2023-04-29T01:07:48;99736.78;;;4.68;87.53
44198;BME280;30157;55.512;37.764;2023-04-29T01:10:26;99738.63;;;4.73;87.61
44198;BME280;30157;55.512;37.764;2023-04-29T01:13:06;99740.31;;;4.74;87.65
44198;BME280;30157;55.512;37.764;2023-04-29T01:18:20;99718.09;;;4.77;87.69
44198;BME280;30157;55.512;37.764;2023-04-29T01:20:50;99721.50;;;4.76;87.71
44198;BME280;30157;55.512;37.764;2023-04-29T01:23:16;99673.13;;;4.53;87.42
44198;BME280;30157;55.512;37.764;2023-04-29T01:25:42;99728.59;;;4.90;87.58
44198;BME280;30157;55.512;37.764;2023-04-29T01:29:33;99732.13;;;4.96;87.23
44198;BME280;30157;55.512;37.764;2023-04-29T01:31:48;99732.06;;;4.90;86.43
44198;BME280;30157;55.512;37.764;2023-04-29T01:34:33;99693.84;;;4.63;86.07
44198;BME280;30157;55.512;37.764;2023-04-29T01:40:26;99739.50;;;4.76;86.73
44198;BME280;30157;55.512;37.764;2023-04-29T01:43:07;99741.22;;;4.74;86.43
44198;BME280;30157;55.512;37.764;2023-04-29T01:45:38;99732.41;;;4.63;86.12
44198;BME280;30157;55.512;37.764;2023-04-29T01:48:07;99747.97;;;4.69;86.22
44198;BME280;30157;55.512;37.764;2023-04-29T01:50:34;99636.31;;;4.04;86.21
44198;BME280;30157;55.512;37.764;2023-04-29T01:53:13;99742.66;;;4.60;85.30
44198;BME280;30157;55.512;37.764;2023-04-29T01:55:40;99693.91;;;4.18;85.84
44198;BME280;30157;55.512;37.764;2023-04-29T01:58:26;99734.63;;;4.43;86.34
44198;BME280;30157;55.512;37.764;2023-04-29T02:01:05;99729.31;;;4.33;86.33
44198;BME280;30157;55.512;37.764;2023-04-29T02:03:34;99656.50;;;3.87;86.91
44198;BME280;30157;55.512;37.764;2023-04-29T02:06:01;99718.88;;;4.24;87.46
44198;BME280;30157;55.512;37.764;2023-04-29T02:08:27;99706.88;;;4.23;87.91
44198;BME280;30157;55.512;37.764;2023-04-29T02:10:56;99727.78;;;4.43;87.54
44198;BME280;30157;55.512;37.764;2023-04-29T02:13:35;99565.84;;;3.45;87.34
44198;BME280;30157;55.512;37.764;2023-04-29T02:16:09;99733.75;;;4.41;87.39
44198;BME280;30157;55.512;37.764;2023-04-29T02:18:37;99707.50;;;4.13;87.40
44198;BME280;30157;55.512;37.764;2023-04-29T02:21:04;99715.06;;;4.05;87.36
44198;BME280;30157;55.512;37.764;2023-04-29T02:23:33;99739.91;;;4.06;87.48
44198;BME280;30157;55.512;37.764;2023-04-29T02:25:59;99752.06;;;4.13;87.20
44198;BME280;30157;55.512;37.764;2023-04-29T02:28:26;99757.16;;;4.12;87.38
44198;BME280;30157;55.512;37.764;2023-04-29T02:30:52;99740.47;;;3.91;87.42
44198;BME280;30157;55.512;37.764;2023-04-29T02:33:19;99774.19;;;4.07;87.92
44198;BME280;30157;55.512;37.764;2023-04-29T02:35:45;99728.19;;;3.78;87.91
44198;BME280;30157;55.512;37.764;2023-04-29T02:38:10;99785.38;;;4.10;87.70
44198;BME280;30157;55.512;37.764;2023-04-29T02:40:44;99747.97;;;3.82;87.47
44198;BME280;30157;55.512;37.764;2023-04-29T02:43:11;99792.09;;;4.03;87.23
44198;BME280;30157;55.512;37.764;2023-04-29T02:45:37;99811.78;;;4.03;87.60
44198;BME280;30157;55.512;37.764;2023-04-29T02:48:07;99811.66;;;3.98;87.90
44198;BME280;30157;55.512;37.764;2023-04-29T02:50:33;99812.59;;;4.02;88.51
44198;BME280;30157;55.512;37.764;2023-04-29T02:53:02;99782.38;;;3.90;88.28
44198;BME280;30157;55.512;37.764;2023-04-29T02:55:28;99822.13;;;4.08;87.84
44198;BME280;30157;55.512;37.764;2023-04-29T02:57:58;99810.16;;;4.07;87.92
44198;BME280;30157;55.512;37.764;2023-04-29T03:00:24;99796.94;;;3.90;88.01
44198;BME280;30157;55.512;37.764;2023-04-29T03:02:50;99824.63;;;4.03;87.63
44198;BME280;30157;55.512;37.764;2023-04-29T03:05:16;99837.63;;;4.11;88.05
44198;BME280;30157;55.512;37.764;2023-04-29T03:07:41;99830.53;;;3.99;87.64
44198;BME280;30157;55.512;37.764;2023-04-29T03:10:09;99840.13;;;4.08;88.21
44198;BME280;30157;55.512;37.764;2023-04-29T03:12:36;99784.63;;;3.75;87.58
44198;BME280;30157;55.512;37.764;2023-04-29T03:15:03;99837.31;;;3.97;86.54
44198;BME280;30157;55.512;37.764;2023-04-29T03:17:30;99796.97;;;3.53;86.50
44198;BME280;30157;55.512;37.764;2023-04-29T03:19:56;99814.59;;;3.39;86.52
44198;BME280;30157;55.512;37.764;2023-04-29T03:22:22;99837.94;;;3.50;86.88
44198;BME280;30157;55.512;37.764;2023-04-29T03:24:48;99789.03;;;3.07;86.87
44198;BME280;30157;55.512;37.764;2023-04-29T03:27:13;99829.66;;;3.25;87.63
44198;BME280;30157;55.512;37.764;2023-04-29T03:29:39;99848.72;;;3.36;88.02
44198;BME280;30157;55.512;37.764;2023-04-29T03:32:05;99822.03;;;3.28;88.29
44198;BME280;30157;55.512;37.764;2023-04-29T03:34:32;99797.69;;;3.12;88.34
44198;BME280;30157;55.512;37.764;2023-04-29T03:37:15;99860.97;;;3.47;88.23
44198;BME280;30157;55.512;37.764;2023-04-29T03:39:45;99860.97;;;3.47;87.97
44198;BME280;30157;55.512;37.764;2023-04-29T03:42:13;99867.06;;;3.50;88.00
44198;BME280;30157;55.512;37.764;2023-04-29T03:44:38;99875.53;;;3.48;87.01
44198;BME280;30157;55.512;37.764;2023-04-29T03:47:04;99848.38;;;3.21;87.74
44198;BME280;30157;55.512;37.764;2023-04-29T03:49:31;99823.16;;;3.05;87.73
44198;BME280;30157;55.512;37.764;2023-04-29T03:51:57;99864.81;;;3.29;87.91
44198;BME280;30157;55.512;37.764;2023-04-29T03:54:23;99889.16;;;3.45;87.94
44198;BME280;30157;55.512;37.764;2023-04-29T03:56:48;99860.44;;;3.25;87.89
44198;BME280;30157;55.512;37.764;2023-04-29T03:59:14;99824.16;;;3.10;87.42
44198;BME280;30157;55.512;37.764;2023-04-29T04:01:41;99876.97;;;3.36;87.10
44198;BME280;30157;55.512;37.764;2023-04-29T04:04:07;99876.91;;;3.35;87.39
44198;BME280;30157;55.512;37.764;2023-04-29T04:06:35;99824.66;;;2.96;87.44
44198;BME280;30157;55.512;37.764;2023-04-29T04:09:01;99861.97;;;3.18;87.43
44198;BME280;30157;55.512;37.764;2023-04-29T04:11:29;99887.78;;;3.25;87.62
44198;BME280;30157;55.512;37.764;2023-04-29T04:13:58;99869.88;;;3.26;87.76
44198;BME280;30157;55.512;37.764;2023-04-29T04:16:24;99888.25;;;3.43;87.84
44198;BME280;30157;55.512;37.764;2023-04-29T04:18:51;99873.53;;;3.36;87.37
44198;BME280;30157;55.512;37.764;2023-04-29T04:21:17;99833.69;;;3.15;87.21
44198;BME280;30157;55.512;37.764;2023-04-29T04:23:48;99893.50;;;3.48;87.42
44198;BME280;30157;55.512;37.764;2023-04-29T04:26:18;99874.47;;;3.38;87.17
44198;BME280;30157;55.512;37.764;2023-04-29T04:28:56;99896.09;;;3.49;87.18
44198;BME280;30157;55.512;37.764;2023-04-29T04:31:54;99885.00;;;3.49;87.59
44198;BME280;30157;55.512;37.764;2023-04-29T04:34:21;99845.31;;;3.36;87.68
44198;BME280;30157;55.512;37.764;2023-04-29T04:36:49;99891.44;;;3.68;87.55
44198;BME280;30157;55.512;37.764;2023-04-29T04:39:16;99869.94;;;3.64;86.97
44198;BME280;30157;55.512;37.764;2023-04-29T04:41:42;99868.41;;;3.71;87.29
44198;BME280;30157;55.512;37.764;2023-04-29T04:44:08;99820.94;;;3.53;86.88
44198;BME280;30157;55.512;37.764;2023-04-29T04:46:41;99876.59;;;3.93;86.80
44198;BME280;30157;55.512;37.764;2023-04-29T04:49:13;99871.41;;;3.90;86.47
44198;BME280;30157;55.512;37.764;2023-04-29T04:51:47;99827.28;;;3.69;86.20
44198;BME280;30157;55.512;37.764;2023-04-29T04:54:13;99886.25;;;4.03;85.74
44198;BME280;30157;55.512;37.764;2023-04-29T04:56:39;99878.63;;;4.06;85.91
44198;BME280;30157;55.512;37.764;2023-04-29T04:59:06;99811.88;;;3.69;85.91
44198;BME280;30157;55.512;37.764;2023-04-29T05:01:35;99867.28;;;3.96;85.45
44198;BME280;30157;55.512;37.764;2023-04-29T05:04:01;99868.91;;;3.93;85.93
44198;BME280;30157;55.512;37.764;2023-04-29T05:06:28;99765.59;;;3.28;86.14
44198;BME280;30157;55.512;37.764;2023-04-29T05:08:54;99875.88;;;3.98;86.55
44198;BME280;30157;55.512;37.764;2023-04-29T05:11:22;99872.53;;;4.02;86.45
44198;BME280;30157;55.512;37.764;2023-04-29T05:14:03;99886.50;;;4.14;86.43
44198;BME280;30157;55.512;37.764;2023-04-29T05:16:30;99885.66;;;4.15;85.75
44198;BME280;30157;55.512;37.764;2023-04-29T05:18:56;99846.44;;;3.82;85.97
44198;BME280;30157;55.512;37.764;2023-04-29T05:21:25;99866.28;;;3.91;85.92
44198;BME280;30157;55.512;37.764;2023-04-29T05:23:51;99859.34;;;3.87;85.96
44198;BME280;30157;55.512;37.764;2023-04-29T05:26:17;99903.00;;;4.25;85.33
44198;BME280;30157;55.512;37.764;2023-04-29T05:28:43;99838.00;;;3.88;84.61
44198;BME280;30157;55.512;37.764;2023-04-29T05:31:09;99877.75;;;4.06;84.89
44198;BME280;30157;55.512;37.764;2023-04-29T05:33:36;99877.81;;;4.09;85.32
44198;BME280;30157;55.512;37.764;2023-04-29T05:36:01;99887.34;;;4.14;85.46
44198;BME280;30157;55.512;37.764;2023-04-29T05:38:27;99880.50;;;4.13;85.25
44198;BME280;30157;55.512;37.764;2023-04-29T05:41:11;99913.47;;;4.33;84.39
44198;BME280;30157;55.512;37.764;2023-04-29T05:43:54;99861.38;;;4.00;84.28
44198;BME280;30157;55.512;37.764;2023-04-29T05:46:20;99913.66;;;4.42;84.11
44198;BME280;30157;55.512;37.764;2023-04-29T05:48:48;99913.53;;;4.36;83.77
44198;BME280;30157;55.512;37.764;2023-04-29T05:51:14;99928.28;;;4.45;83.51
44198;BME280;30157;55.512;37.764;2023-04-29T05:53:40;99934.31;;;4.47;83.51
44198;BME280;30157;55.512;37.764;2023-04-29T05:56:06;99884.09;;;4.22;83.32
44198;BME280;30157;55.512;37.764;2023-04-29T05:58:34;99909.31;;;4.40;83.07
44198;BME280;30157;55.512;37.764;2023-04-29T06:01:00;99935.38;;;4.55;82.54
44198;BME280;30157;55.512;37.764;2023-04-29T06:03:28;99879.78;;;4.20;82.56
44198;BME280;30157;55.512;37.764;2023-04-29T06:06:09;99878.88;;;4.18;82.47
44198;BME280;30157;55.512;37.764;2023-04-29T06:08:53;99943.91;;;4.54;83.10
44198;BME280;30157;55.512;37.764;2023-04-29T06:11:24;99910.16;;;4.38;83.34
44198;BME280;30157;55.512;37.764;2023-04-29T06:13:50;99928.47;;;4.52;82.84
44198;BME280;30157;55.512;37.764;2023-04-29T06:16:16;99919.75;;;4.46;82.31
44198;BME280;30157;55.512;37.764;2023-04-29T06:18:42;99963.34;;;4.81;82.54
44198;BME280;30157;55.512;37.764;2023-04-29T06:21:08;99892.28;;;4.43;82.04
44198;BME280;30157;55.512;37.764;2023-04-29T06:23:35;99913.97;;;4.58;82.02
44198;BME280;30157;55.512;37.764;2023-04-29T06:26:06;99982.78;;;5.09;81.98
44198;BME280;30157;55.512;37.764;2023-04-29T06:28:32;99924.03;;;4.88;81.81
44198;BME280;30157;55.512;37.764;2023-04-29T06:30:58;99989.38;;;5.41;81.50
44198;BME280;30157;55.512;37.764;2023-04-29T06:33:23;99932.53;;;5.28;81.49
44198;BME280;30157;55.512;37.764;2023-04-29T06:35:49;99992.66;;;5.81;79.95
44198;BME280;30157;55.512;37.764;2023-04-29T06:38:34;99943.44;;;5.64;78.45
44198;BME280;30157;55.512;37.764;2023-04-29T06:41:18;99992.69;;;6.33;77.73
44198;BME280;30157;55.512;37.764;2023-04-29T06:44:07;99998.47;;;6.76;76.33
44198;BME280;30157;55.512;37.764;2023-04-29T06:47:01;99995.53;;;7.17;74.13
44198;BME280;30157;55.512;37.764;2023-04-29T06:49:59;99997.91;;;7.77;71.08
44198;BME280;30157;55.512;37.764;2023-04-29T06:52:25;99844.38;;;7.50;70.15
44198;BME280;30157;55.512;37.764;2023-04-29T06:54:51;99993.53;;;8.88;67.81
44198;BME280;30157;55.512;37.764;2023-04-29T06:57:17;99937.47;;;8.94;65.80
44198;BME280;30157;55.512;37.764;2023-04-29T06:59:47;99983.34;;;9.22;65.35
44198;BME280;30157;55.512;37.764;2023-04-29T07:02:13;99978.97;;;9.12;66.06
44198;BME280;30157;55.512;37.764;2023-04-29T07:04:39;100016.06;;;9.11;65.34
44198;BME280;30157;55.512;37.764;2023-04-29T07:07:05;100019.25;;;8.59;65.89
44198;BME280;30157;55.512;37.764;2023-04-29T07:09:33;99973.53;;;8.55;66.76
44198;BME280;30157;55.512;37.764;2023-04-29T07:11:59;100014.22;;;8.79;65.90
44198;BME280;30157;55.512;37.764;2023-04-29T07:14:27;100009.44;;;8.16;65.95
44198;BME280;30157;55.512;37.764;2023-04-29T07:16:53;100014.81;;;8.44;67.04
44198;BME280;30157;55.512;37.764;2023-04-29T07:19:19;100009.16;;;9.01;65.88
44198;BME280;30157;55.512;37.764;2023-04-29T07:21:45;100005.63;;;8.89;65.62
44198;BME280;30157;55.512;37.764;2023-04-29T07:24:11;100019.63;;;9.38;64.51
44198;BME280;30157;55.512;37.764;2023-04-29T07:26:38;100016.16;;;9.33;63.41
44198;BME280;30157;55.512;37.764;2023-04-29T07:29:06;100021.47;;;9.65;62.34
44198;BME280;30157;55.512;37.764;2023-04-29T07:31:31;100006.56;;;9.04;63.08
44198;BME280;30157;55.512;37.764;2023-04-29T07:34:03;100007.19;;;8.56;65.02
44198;BME280;30157;55.512;37.764;2023-04-29T07:36:28;100032.03;;;8.39;66.14
44198;BME280;30157;55.512;37.764;2023-04-29T07:38:55;100038.03;;;8.33;66.73
44198;BME280;30157;55.512;37.764;2023-04-29T07:41:21;100032.16;;;8.56;66.42
44198;BME280;30157;55.512;37.764;2023-04-29T07:43:47;100042.69;;;8.79;65.96
44198;BME280;30157;55.512;37.764;2023-04-29T07:46:13;100049.94;;;9.62;63.46
44198;BME280;30157;55.512;37.764;2023-04-29T07:48:41;100048.97;;;9.31;62.45
44198;BME280;30157;55.512;37.764;2023-04-29T07:51:12;100054.78;;;8.86;63.91
44198;BME280;30157;55.512;37.764;2023-04-29T07:53:39;100038.38;;;8.81;64.03
44198;BME280;30157;55.512;37.764;2023-04-29T07:56:06;100045.69;;;9.94;62.11
44198;BME280;30157;55.512;37.764;2023-04-29T07:58:32;100061.28;;;10.52;61.23
44198;BME280;30157;55.512;37.764;2023-04-29T08:01:08;100002.34;;;11.07;58.21
44198;BME280;30157;55.512;37.764;2023-04-29T08:03:35;100061.06;;;11.43;56.37
44198;BME280;30157;55.512;37.764;2023-04-29T08:06:02;100066.38;;;11.06;58.07
44198;BME280;30157;55.512;37.764;2023-04-29T08:08:29;100071.69;;;10.60;59.26
44198;BME280;30157;55.512;37.764;2023-04-29T08:10:55;100064.78;;;10.36;60.18
44198;BME280;30157;55.512;37.764;2023-04-29T08:13:21;100069.50;;;11.89;57.98
44198;BME280;30157;55.512;37.764;2023-04-29T08:15:47;100068.50;;;12.13;56.56
44198;BME280;30157;55.512;37.764;2023-04-29T08:18:14;100074.47;;;12.26;54.96
44198;BME280;30157;55.512;37.764;2023-04-29T08:20:39;100074.84;;;12.82;52.92
44198;BME280;30157;55.512;37.764;2023-04-29T08:23:06;100068.19;;;12.55;53.29
44198;BME280;30157;55.512;37.764;2023-04-29T08:25:32;100081.59;;;11.99;54.31
44198;BME280;30157;55.512;37.764;2023-04-29T08:27:57;100051.41;;;11.70;56.55
44198;BME280;30157;55.512;37.764;2023-04-29T08:30:23;100064.06;;;12.24;53.88
44198;BME280;30157;55.512;37.764;2023-04-29T08:32:49;100051.28;;;11.90;54.81
44198;BME280;30157;55.512;37.764;2023-04-29T08:35:15;100076.34;;;12.05;54.83
44198;BME280;30157;55.512;37.764;2023-04-29T08:37:41;100056.16;;;12.38;54.03
44198;BME280;30157;55.512;37.764;2023-04-29T08:40:07;100063.28;;;12.12;54.47
44198;BME280;30157;55.512;37.764;2023-04-29T08:42:35;100071.44;;;11.45;54.62
44198;BME280;30157;55.512;37.764;2023-04-29T08:45:02;100031.88;;;10.64;55.91
44198;BME280;30157;55.512;37.764;2023-04-29T08:47:33;100085.75;;;12.23;53.21
44198;BME280;30157;55.512;37.764;2023-04-29T08:50:02;100089.66;;;14.75;49.15
44198;BME280;30157;55.512;37.764;2023-04-29T08:52:32;100037.38;;;14.25;48.91
44198;BME280;30157;55.512;37.764;2023-04-29T08:54:58;100085.34;;;13.55;50.07
44198;BME280;30157;55.512;37.764;2023-04-29T08:57:35;100058.22;;;11.91;50.76
44198;BME280;30157;55.512;37.764;2023-04-29T09:00:09;100097.44;;;11.43;52.68
44198;BME280;30157;55.512;37.764;2023-04-29T09:02:52;100101.09;;;10.68;54.51
44198;BME280;30157;55.512;37.764;2023-04-29T09:05:20;100102.81;;;10.49;56.39
44198;BME280;30157;55.512;37.764;2023-04-29T09:07:47;100086.38;;;10.44;55.79
44198;BME280;30157;55.512;37.764;2023-04-29T09:10:14;100057.78;;;10.87;54.32
44198;BME280;30157;55.512;37.764;2023-04-29T09:12:41;100080.03;;;12.84;50.82
44198;BME280;30157;55.512;37.764;2023-04-29T09:15:07;100107.94;;;14.76;46.91
44198;BME280;30157;55.512;37.764;2023-04-29T09:22:49;100095.72;;;17.13;39.36
44198;BME280;30157;55.512;37.764;2023-04-29T09:25:15;100080.34;;;17.33;38.25
44198;BME280;30157;55.512;37.764;2023-04-29T09:27:40;100059.22;;;16.38;37.65
44198;BME280;30157;55.512;37.764;2023-04-29T09:30:07;100108.38;;;16.63;39.63
44198;BME280;30157;55.512;37.764;2023-04-29T09:32:33;100092.88;;;18.12;37.68
44198;BME280;30157;55.512;37.764;2023-04-29T09:35:31;100098.84;;;19.22;33.27
44198;BME280;30157;55.512;37.764;2023-04-29T09:38:17;100083.28;;;18.65;33.27
44198;BME280;30157;55.512;37.764;2023-04-29T09:40:43;100096.91;;;18.50;33.64
44198;BME280;30157;55.512;37.764;2023-04-29T09:43:14;100106.59;;;17.31;35.09
44198;BME280;30157;55.512;37.764;2023-04-29T09:45:43;100061.06;;;17.63;34.54
44198;BME280;30157;55.512;37.764;2023-04-29T09:48:10;100094.06;;;18.83;32.29
44198;BME280;30157;55.512;37.764;2023-04-29T09:50:38;100060.19;;;17.35;32.48
44198;BME280;30157;55.512;37.764;2023-04-29T09:53:06;100106.66;;;17.61;33.03
44198;BME280;30157;55.512;37.764;2023-04-29T09:55:57;100112.78;;;17.30;34.30
44198;BME280;30157;55.512;37.764;2023-04-29T09:58:33;100117.66;;;16.40;36.39
44198;BME280;30157;55.512;37.764;2023-04-29T10:01:03;100120.06;;;16.12;37.00
44198;BME280;30157;55.512;37.764;2023-04-29T10:03:32;100121.19;;;14.64;38.96
44198;BME280;30157;55.512;37.764;2023-04-29T10:05:59;100048.75;;;12.88;40.54
44198;BME280;30157;55.512;37.764;2023-04-29T10:08:28;100125.69;;;12.21;42.75
44198;BME280;30157;55.512;37.764;2023-04-29T10:10:57;100037.84;;;10.94;44.24
44198;BME280;30157;55.512;37.764;2023-04-29T10:13:24;100148.63;;;11.15;45.79
44198;BME280;30157;55.512;37.764;2023-04-29T10:18:48;100156.44;;;11.15;46.75
44198;BME280;30157;55.512;37.764;2023-04-29T10:21:17;100107.03;;;11.29;45.26
44198;BME280;30157;55.512;37.764;2023-04-29T10:23:47;100134.28;;;12.32;43.91
44198;BME280;30157;55.512;37.764;2023-04-29T10:26:13;100154.78;;;14.31;41.00
44198;BME280;30157;55.512;37.764;2023-04-29T10:28:42;100145.66;;;15.10;38.12
44198;BME280;30157;55.512;37.764;2023-04-29T10:31:11;100105.38;;;14.73;37.73
44198;BME280;30157;55.512;37.764;2023-04-29T10:33:39;100161.69;;;14.35;37.84
44198;BME280;30157;55.512;37.764;2023-04-29T10:36:09;100168.16;;;13.33;39.98
44198;BME280;30157;55.512;37.764;2023-04-29T10:38:39;100171.19;;;12.88;41.57
44198;BME280;30157;55.512;37.764;2023-04-29T10:41:36;100174.22;;;12.28;42.39
44198;BME280;30157;55.512;37.764;2023-04-29T10:44:07;100170.03;;;12.01;42.41
44198;BME280;30157;55.512;37.764;2023-04-29T10:46:33;100180.13;;;12.55;42.24
44198;BME280;30157;55.512;37.764;2023-04-29T10:49:03;100177.75;;;15.65;36.20
44198;BME280;30157;55.512;37.764;2023-04-29T10:51:32;100145.06;;;17.32;33.79
44198;BME280;30157;55.512;37.764;2023-04-29T10:59:13;100174.78;;;19.81;29.20
44198;BME280;30157;55.512;37.764;2023-04-29T11:04:06;100173.56;;;19.18;29.06
44198;BME280;30157;55.512;37.764;2023-04-29T11:14:15;100175.41;;;18.60;31.00
44198;BME280;30157;55.512;37.764;2023-04-29T11:16:56;100172.16;;;20.05;28.56
44198;BME280;30157;55.512;37.764;2023-04-29T11:19:25;100129.19;;;19.79;28.01
44198;BME280;30157;55.512;37.764;2023-04-29T11:22:49;100168.75;;;17.29;29.80
44198;BME280;30157;55.512;37.764;2023-04-29T11:25:08;100180.84;;;15.87;32.82
44198;BME280;30157;55.512;37.764;2023-04-29T11:27:39;100167.19;;;14.74;34.74
44198;BME280;30157;55.512;37.764;2023-04-29T11:30:07;100179.53;;;14.02;35.79
44198;BME280;30157;55.512;37.764;2023-04-29T11:32:38;100190.59;;;13.50;37.62
44198;BME280;30157;55.512;37.764;2023-04-29T11:35:16;100183.16;;;13.08;37.95
44198;BME280;30157;55.512;37.764;2023-04-29T11:37:44;100189.22;;;13.11;38.43
44198;BME280;30157;55.512;37.764;2023-04-29T11:40:11;100123.69;;;16.06;33.42
44198;BME280;30157;55.512;37.764;2023-04-29T11:42:48;100184.81;;;16.05;33.93
44198;BME280;30157;55.512;37.764;2023-04-29T11:45:17;100181.44;;;15.08;34.37
44198;BME280;30157;55.512;37.764;2023-04-29T11:47:44;100166.16;;;15.33;34.29
44198;BME280;30157;55.512;37.764;2023-04-29T11:50:11;100105.81;;;13.86;35.42
44198;BME280;30157;55.512;37.764;2023-04-29T11:52:38;100174.16;;;13.41;36.60
44198;BME280;30157;55.512;37.764;2023-04-29T11:55:07;100184.00;;;13.11;37.34
44198;BME280;30157;55.512;37.764;2023-04-29T11:57:33;100161.81;;;13.59;36.92
44198;BME280;30157;55.512;37.764;2023-04-29T12:00:00;100176.13;;;13.16;37.58
44198;BME280;30157;55.512;37.764;2023-04-29T12:02:30;100180.34;;;14.68;34.86
44198;BME280;30157;55.512;37.764;2023-04-29T12:04:56;100193.47;;;16.48;32.14
44198;BME280;30157;55.512;37.764;2023-04-29T12:07:22;100167.31;;;18.11;29.84
44198;BME280;30157;55.512;37.764;2023-04-29T12:09:49;100189.50;;;18.85;28.14
44198;BME280;30157;55.512;37.764;2023-04-29T12:12:15;100080.69;;;18.63;27.29
44198;BME280;30157;55.512;37.764;2023-04-29T12:14:41;100152.31;;;18.15;29.25
44198;BME280;30157;55.512;37.764;2023-04-29T12:17:08;100175.41;;;19.39;28.04
44198;BME280;30157;55.512;37.764;2023-04-29T12:19:35;100159.16;;;20.01;26.35
44198;BME280;30157;55.512;37.764;2023-04-29T12:22:04;100167.56;;;20.55;26.17
44198;BME280;30157;55.512;37.764;2023-04-29T12:24:37;100165.59;;;19.19;25.84
44198;BME280;30157;55.512;37.764;2023-04-29T12:27:07;100175.06;;;18.44;26.90
44198;BME280;30157;55.512;37.764;2023-04-29T12:29:35;100179.44;;;16.11;30.60
44198;BME280;30157;55.512;37.764;2023-04-29T12:32:01;100167.03;;;16.95;29.94
44198;BME280;30157;55.512;37.764;2023-04-29T12:34:28;100170.38;;;18.54;28.30
44198;BME280;30157;55.512;37.764;2023-04-29T12:36:55;100174.38;;;17.78;29.45
44198;BME280;30157;55.512;37.764;2023-04-29T12:39:22;100164.41;;;15.81;32.06
44198;BME280;30157;55.512;37.764;2023-04-29T12:41:48;100135.72;;;16.15;31.41
44198;BME280;30157;55.512;37.764;2023-04-29T12:44:14;100110.94;;;15.91;32.05
44198;BME280;30157;55.512;37.764;2023-04-29T12:46:40;100169.16;;;15.11;33.84
44198;BME280;30157;55.512;37.764;2023-04-29T12:49:06;100172.28;;;14.24;34.94
44198;BME280;30157;55.512;37.764;2023-04-29T12:51:34;100166.28;;;13.46;36.67
44198;BME280;30157;55.512;37.764;2023-04-29T12:54:02;100170.28;;;12.91;37.48
44198;BME280;30157;55.512;37.764;2023-04-29T12:56:29;100171.50;;;12.48;38.07
44198;BME280;30157;55.512;37.764;2023-04-29T12:58:56;100111.91;;;12.06;38.74
44198;BME280;30157;55.512;37.764;2023-04-29T13:01:21;100158.41;;;12.57;38.74
44198;BME280;30157;55.512;37.764;2023-04-29T13:03:48;100160.88;;;12.73;37.38
44198;BME280;30157;55.512;37.764;2023-04-29T13:06:14;100142.91;;;12.39;37.67
44198;BME280;30157;55.512;37.764;2023-04-29T13:08:41;100154.19;;;12.39;37.68
44198;BME280;30157;55.512;37.764;2023-04-29T13:11:07;100153.31;;;12.40;37.59
44198;BME280;30157;55.512;37.764;2023-04-29T13:13:32;99978.81;;;11.38;37.78
44198;BME280;30157;55.512;37.764;2023-04-29T13:15:58;100144.56;;;12.52;37.33
44198;BME280;30157;55.512;37.764;2023-04-29T13:18:24;100168.69;;;12.74;37.50
44198;BME280;30157;55.512;37.764;2023-04-29T13:20:51;100147.06;;;12.63;37.67
44198;BME280;30157;55.512;37.764;2023-04-29T13:23:18;100162.63;;;12.69;37.77
44198;BME280;30157;55.512;37.764;2023-04-29T13:25:43;100151.41;;;12.66;38.69
44198;BME280;30157;55.512;37.764;2023-04-29T13:28:09;100155.63;;;12.76;38.47
44198;BME280;30157;55.512;37.764;2023-04-29T13:30:36;100159.94;;;12.80;38.44